Time;durP1;ratioP1;P1;durP2;ratioP2;P2;SDS_P1;SDS_P2;PMS_P1;PMS_P2;Temp;Humidity;BMP_temperature;BMP_pressure;BME280_temperature;BME280_humidity;BME280_pressure;Samples;Min_cycle;Max_cycle;Signal;HPM_P1;HPM_P2
2024/01/04 00:01:37;;;;;;;0.20;0.20;;;;;;;5.14;100.00;94441.44;6138127;23;20045;-76
2024/01/04 00:04:23;;;;;;;0.17;0.17;;;;;;;5.12;100.00;94471.91;6137959;23;20037;-75
2024/01/04 00:07:09;;;;;;;0.20;0.20;;;;;;;5.05;100.00;94456.25;6138103;23;20114;-77
2024/01/04 00:09:55;;;;;;;0.17;0.17;;;;;;;5.04;100.00;94452.03;6138112;23;20029;-75
2024/01/04 00:12:41;;;;;;;0.10;0.10;;;;;;;5.03;100.00;94463.69;6138236;23;20022;-77
2024/01/04 00:15:27;;;;;;;0.10;0.10;;;;;;;5.05;100.00;94464.22;6138224;23;20413;-77
2024/01/04 00:18:13;;;;;;;0.20;0.20;;;;;;;5.03;100.00;94474.28;6136432;23;20091;-76
2024/01/04 00:21:02;;;;;;;0.17;0.17;;;;;;;4.96;100.00;94461.28;6137902;23;20017;-75
2024/01/04 00:23:50;;;;;;;0.20;0.20;;;;;;;4.80;100.00;94461.50;6136609;23;20045;-76
2024/01/04 00:26:35;;;;;;;0.20;0.20;;;;;;;4.81;100.00;94477.13;6139034;23;20076;-74
2024/01/04 00:29:21;;;;;;;0.20;0.20;;;;;;;4.83;100.00;94471.59;6138273;23;20112;-76
2024/01/04 00:32:07;;;;;;;0.20;0.20;;;;;;;4.91;100.00;94489.66;6136588;23;20131;-76
2024/01/04 00:34:53;;;;;;;0.20;0.20;;;;;;;4.97;100.00;94501.84;6137391;23;20029;-77
2024/01/04 00:37:39;;;;;;;0.20;0.20;;;;;;;4.98;100.00;94496.28;6137105;23;20100;-77
2024/01/04 00:40:25;;;;;;;0.20;0.20;;;;;;;5.01;100.00;94502.91;6138188;23;20349;-75
2024/01/04 00:43:11;;;;;;;0.20;0.20;;;;;;;4.92;100.00;94547.69;6137821;23;20021;-74
2024/01/04 00:45:58;;;;;;;0.20;0.20;;;;;;;4.74;100.00;94525.06;6136845;23;20133;-80
2024/01/04 00:48:44;;;;;;;0.20;0.20;;;;;;;4.71;100.00;94524.81;6137614;23;20033;-76
2024/01/04 00:51:30;;;;;;;0.20;0.20;;;;;;;4.63;100.00;94536.69;6138467;23;20037;-75
2024/01/04 00:54:16;;;;;;;0.20;0.20;;;;;;;4.60;100.00;94547.81;6119219;23;20092;-76
2024/01/04 00:57:02;;;;;;;0.20;0.20;;;;;;;4.57;100.00;94543.00;6136884;23;20713;-74
2024/01/04 00:59:48;;;;;;;0.20;0.20;;;;;;;4.49;100.00;94532.91;6137989;23;20022;-74
2024/01/04 01:02:34;;;;;;;0.20;0.20;;;;;;;4.44;100.00;94557.53;6137408;23;20532;-74
2024/01/04 01:05:19;;;;;;;0.20;0.20;;;;;;;4.43;100.00;94561.19;6138521;23;20025;-77
2024/01/04 01:08:06;;;;;;;0.20;0.20;;;;;;;4.40;100.00;94572.31;6135795;23;20137;-74
2024/01/04 01:10:51;;;;;;;0.20;0.20;;;;;;;4.44;100.00;94573.41;6137027;23;20088;-75
2024/01/04 01:13:37;;;;;;;0.20;0.20;;;;;;;4.46;100.00;94573.16;6136776;23;20021;-76
2024/01/04 01:16:25;;;;;;;0.15;0.15;;;;;;;4.47;100.00;94582.69;6136937;23;20155;-74
2024/01/04 01:19:11;;;;;;;0.20;0.20;;;;;;;4.39;100.00;94576.00;6137151;23;20795;-75
2024/01/04 01:21:57;;;;;;;0.20;0.20;;;;;;;4.36;100.00;94575.75;6137469;23;21001;-77
2024/01/04 01:24:43;;;;;;;0.20;0.20;;;;;;;4.39;100.00;94585.81;6138935;23;20021;-77
2024/01/04 01:27:29;;;;;;;0.20;0.20;;;;;;;4.37;100.00;94578.13;6138573;23;20076;-74
2024/01/04 01:30:14;;;;;;;0.20;0.20;;;;;;;4.39;100.00;94588.47;6136116;23;20027;-74
2024/01/04 01:33:00;;;;;;;0.10;0.10;;;;;;;4.41;100.00;94599.59;6135772;23;20104;-76
2024/01/04 01:35:46;;;;;;;0.20;0.20;;;;;;;4.41;100.00;94608.34;6125735;23;20551;-76
2024/01/04 01:38:32;;;;;;;0.20;0.20;;;;;;;4.41;100.00;94589.00;6136416;23;20055;-75
2024/01/04 01:41:18;;;;;;;0.20;0.20;;;;;;;4.46;100.00;94607.59;6138325;23;20020;-74
2024/01/04 01:44:04;;;;;;;0.20;0.20;;;;;;;4.46;100.00;94602.28;6136265;23;20723;-76
2024/01/04 01:46:50;;;;;;;0.20;0.20;;;;;;;4.55;100.00;94618.50;6135826;23;20087;-76
2024/01/04 01:49:36;;;;;;;0.20;0.20;;;;;;;4.47;100.00;94611.81;6137276;23;20025;-74
2024/01/04 01:52:22;;;;;;;0.20;0.20;;;;;;;4.48;100.00;94606.25;6137504;23;20021;-76
2024/01/04 01:55:09;;;;;;;0.20;0.20;;;;;;;4.55;100.00;94611.34;6137334;23;20017;-74
2024/01/04 01:57:56;;;;;;;0.20;0.20;;;;;;;4.54;100.00;94619.56;6134701;23;20021;-74
2024/01/04 02:00:42;;;;;;;0.20;0.20;;;;;;;4.58;100.00;94626.72;6135594;23;20020;-75
2024/01/04 02:03:28;;;;;;;0.22;0.22;;;;;;;4.58;100.00;94633.88;6137571;23;20021;-74
2024/01/04 02:06:14;;;;;;;0.10;0.10;;;;;;;4.56;100.00;94636.78;6136965;23;20022;-74
2024/01/04 02:09:00;;;;;;;0.20;0.20;;;;;;;4.51;100.00;94644.69;6135806;23;20021;-74
2024/01/04 02:11:45;;;;;;;0.20;0.20;;;;;;;4.47;100.00;94644.41;6136866;23;20029;-74
2024/01/04 02:14:32;;;;;;;0.20;0.20;;;;;;;4.46;100.00;94637.50;6137117;23;20723;-74
2024/01/04 02:17:19;;;;;;;0.20;0.20;;;;;;;4.44;100.00;94630.88;6134751;23;20025;-75
2024/01/04 02:20:06;;;;;;;0.20;0.20;;;;;;;4.46;100.00;94649.97;6135235;23;20021;-75
2024/01/04 02:22:52;;;;;;;0.20;0.20;;;;;;;4.54;100.00;94657.44;6135627;23;20650;-75
2024/01/04 02:25:38;;;;;;;0.20;0.20;;;;;;;4.53;100.00;94655.84;6136720;23;20068;-76
2024/01/04 02:28:24;;;;;;;0.20;0.20;;;;;;;4.62;100.00;94664.91;6136686;23;20084;-75
2024/01/04 02:31:10;;;;;;;0.20;0.20;;;;;;;4.60;100.00;94667.03;6135833;23;20033;-75
2024/01/04 02:33:56;;;;;;;0.20;0.20;;;;;;;4.58;100.00;94663.81;6135757;23;20653;-74
2024/01/04 02:36:42;;;;;;;0.20;0.20;;;;;;;4.60;100.00;94676.81;6136915;23;20093;-77
2024/01/04 02:39:28;;;;;;;0.20;0.20;;;;;;;4.54;100.00;94672.53;6136243;23;20586;-76
2024/01/04 02:42:14;;;;;;;0.20;0.20;;;;;;;4.50;100.00;94696.06;6136935;23;20437;-74
2024/01/04 02:45:00;;;;;;;0.20;0.20;;;;;;;4.50;100.00;94660.84;6134898;23;20059;-75
2024/01/04 02:47:45;;;;;;;0.20;0.20;;;;;;;4.50;100.00;94696.06;6134484;23;20783;-73
2024/01/04 02:50:31;;;;;;;0.20;0.20;;;;;;;4.53;100.00;94686.84;6136546;23;20025;-74
2024/01/04 02:53:17;;;;;;;0.20;0.20;;;;;;;4.54;100.00;94696.38;6135317;23;20091;-73
2024/01/04 02:56:04;;;;;;;0.20;0.20;;;;;;;4.58;100.00;94685.00;6134492;23;20087;-76
2024/01/04 02:58:50;;;;;;;0.20;0.20;;;;;;;4.61;100.00;94695.09;6135595;23;20356;-75
2024/01/04 03:01:36;;;;;;;0.20;0.20;;;;;;;4.61;100.00;94705.72;6135138;23;20100;-74
2024/01/04 03:04:22;;;;;;;0.20;0.20;;;;;;;4.62;100.00;94736.44;6136160;23;20044;-74
2024/01/04 03:07:08;;;;;;;0.20;0.20;;;;;;;4.63;100.00;94724.78;6136643;23;20659;-74
2024/01/04 03:09:55;;;;;;;0.22;0.22;;;;;;;4.60;100.00;94720.00;6135637;23;20445;-76
2024/01/04 03:12:40;;;;;;;0.20;0.20;;;;;;;4.64;100.00;94721.09;6136279;23;20501;-74
2024/01/04 03:15:26;;;;;;;0.20;0.20;;;;;;;4.66;100.00;94721.63;6136550;23;20112;-75
2024/01/04 03:18:12;;;;;;;0.20;0.20;;;;;;;4.60;100.00;94730.59;6135717;23;20035;-74
2024/01/04 03:20:58;;;;;;;0.20;0.20;;;;;;;4.62;100.00;94743.59;6136301;23;20053;-77
2024/01/04 03:23:44;;;;;;;0.20;0.20;;;;;;;4.62;100.00;94740.94;6135699;23;20056;-77
2024/01/04 03:26:30;;;;;;;0.20;0.20;;;;;;;4.62;100.00;94736.44;6137682;23;20365;-75
2024/01/04 03:29:15;;;;;;;0.20;0.20;;;;;;;4.64;100.00;94736.97;6136117;23;20056;-74
2024/01/04 03:32:02;;;;;;;0.20;0.20;;;;;;;4.64;100.00;94736.97;6134371;23;20125;-75
2024/01/04 03:34:49;;;;;;;0.20;0.20;;;;;;;4.60;100.00;94745.72;6135454;23;20057;-74
2024/01/04 03:37:34;;;;;;;0.20;0.20;;;;;;;4.62;100.00;94735.66;6137044;23;20029;-75
2024/01/04 03:40:20;;;;;;;0.20;0.20;;;;;;;4.55;100.00;94751.75;6135672;23;20634;-74
2024/01/04 03:43:07;;;;;;;0.20;0.20;;;;;;;4.63;100.00;94761.09;6135055;23;20025;-75
2024/01/04 03:45:52;;;;;;;0.20;0.20;;;;;;;4.66;100.00;94779.91;6136069;23;20133;-74
2024/01/04 03:48:38;;;;;;;0.20;0.20;;;;;;;4.68;100.00;94766.44;6136459;23;20026;-74
2024/01/04 03:51:24;;;;;;;0.20;0.20;;;;;;;4.68;100.00;94780.47;6135395;23;20028;-74
2024/01/04 03:54:10;;;;;;;0.20;0.20;;;;;;;4.63;100.00;94775.13;6136374;23;20024;-75
2024/01/04 03:56:56;;;;;;;0.22;0.22;;;;;;;4.67;100.00;94792.13;6135808;23;20028;-76
2024/01/04 03:59:42;;;;;;;0.20;0.20;;;;;;;4.67;100.00;94789.50;6135947;23;20025;-77
2024/01/04 04:02:28;;;;;;;0.20;0.20;;;;;;;4.64;100.00;94792.63;6135146;23;20068;-77
2024/01/04 04:05:14;;;;;;;0.20;0.20;;;;;;;4.65;100.00;94796.88;6135293;23;20036;-75
2024/01/04 04:08:00;;;;;;;0.20;0.20;;;;;;;4.64;100.00;94800.56;6135158;23;20351;-75
2024/01/04 04:10:46;;;;;;;0.25;0.25;;;;;;;4.64;100.00;94810.38;6135339;23;20026;-76
2024/01/04 04:13:32;;;;;;;0.20;0.20;;;;;;;4.60;100.00;94809.28;6136602;23;20017;-77
2024/01/04 04:16:18;;;;;;;0.20;0.20;;;;;;;4.61;100.00;94827.59;6136391;23;20065;-75
2024/01/04 04:19:04;;;;;;;0.20;0.20;;;;;;;4.61;100.00;94822.28;6135908;23;20038;-80
2024/01/04 04:21:50;;;;;;;0.20;0.20;;;;;;;4.63;100.00;94830.78;6137547;23;20026;-79
2024/01/04 04:24:36;;;;;;;0.20;0.20;;;;;;;4.60;100.00;94825.97;6137431;23;20626;-77
2024/01/04 04:27:22;;;;;;;0.20;0.20;;;;;;;4.62;100.00;94839.78;6137786;23;20017;-76
2024/01/04 04:30:08;;;;;;;0.20;0.20;;;;;;;4.62;100.00;94838.97;6137126;23;20108;-76
2024/01/04 04:32:54;;;;;;;0.20;0.20;;;;;;;4.63;100.00;94851.97;6137191;23;20029;-80
2024/01/04 04:35:40;;;;;;;0.20;0.20;;;;;;;4.62;100.00;94858.31;6138857;23;20021;-79
2024/01/04 04:38:26;;;;;;;0.20;0.20;;;;;;;4.67;100.00;94847.78;6137182;23;20466;-75
2024/01/04 04:41:12;;;;;;;0.20;0.20;;;;;;;4.68;100.00;94857.31;6138736;23;20100;-75
2024/01/04 04:43:58;;;;;;;0.20;0.20;;;;;;;4.71;100.00;94874.56;6138628;23;20029;-75
2024/01/04 04:46:44;;;;;;;0.30;0.30;;;;;;;4.72;100.00;94871.66;6137397;23;20715;-77
2024/01/04 04:49:30;;;;;;;0.20;0.20;;;;;;;4.74;100.00;94871.41;6138074;23;20029;-75
2024/01/04 04:52:16;;;;;;;0.10;0.10;;;;;;;4.72;100.00;94879.59;6138446;23;20519;-75
2024/01/04 04:55:02;;;;;;;0.20;0.20;;;;;;;4.70;100.00;94876.41;6136917;23;20082;-75
2024/01/04 04:57:47;;;;;;;0.20;0.20;;;;;;;4.74;100.00;94880.16;6136709;23;20025;-74
2024/01/04 05:00:34;;;;;;;0.25;0.25;;;;;;;4.74;100.00;94887.31;6136805;23;20192;-77
2024/01/04 05:03:20;;;;;;;0.20;0.20;;;;;;;4.72;100.00;94895.50;6139910;23;20036;-74
2024/01/04 05:06:08;;;;;;;0.25;0.25;;;;;;;4.74;100.00;94893.41;6140663;23;20021;-74
2024/01/04 05:08:54;;;;;;;0.20;0.20;;;;;;;4.65;100.00;94897.56;6139441;23;20491;-75
2024/01/04 05:11:39;;;;;;;0.20;0.20;;;;;;;4.70;100.00;94894.97;6141008;23;20026;-77
2024/01/04 05:14:25;;;;;;;0.20;0.20;;;;;;;4.77;100.00;94897.44;6140058;23;20018;-75
2024/01/04 05:17:11;;;;;;;0.30;0.30;;;;;;;4.75;100.00;94907.47;6139671;23;20056;-76
2024/01/04 05:19:57;;;;;;;0.20;0.20;;;;;;;4.79;100.00;94905.91;6140375;23;20033;-75
2024/01/04 05:22:43;;;;;;;0.20;0.20;;;;;;;4.82;100.00;94917.84;6139730;23;20022;-74
2024/01/04 05:25:29;;;;;;;0.20;0.20;;;;;;;4.81;100.00;94901.16;6140489;23;20105;-76
2024/01/04 05:28:15;;;;;;;0.20;0.20;;;;;;;4.81;100.00;94918.91;6139499;23;20033;-76
2024/01/04 05:31:01;;;;;;;0.20;0.20;;;;;;;4.78;100.00;94912.28;6138147;23;20893;-76
2024/01/04 05:33:47;;;;;;;0.20;0.20;;;;;;;4.84;100.00;94931.69;6139532;23;20021;-77
2024/01/04 05:36:33;;;;;;;0.20;0.20;;;;;;;4.87;100.00;94934.63;6140124;23;20093;-79
2024/01/04 05:39:18;;;;;;;0.20;0.20;;;;;;;4.82;100.00;94939.06;6139875;23;20025;-74
2024/01/04 05:42:04;;;;;;;0.20;0.20;;;;;;;4.80;100.00;94949.91;6139714;23;20644;-76
2024/01/04 05:44:50;;;;;;;0.20;0.20;;;;;;;4.69;100.00;94941.06;6139873;23;20107;-76
2024/01/04 05:47:37;;;;;;;0.13;0.13;;;;;;;4.52;100.00;94950.13;6139536;23;20841;-75
2024/01/04 05:50:23;;;;;;;0.20;0.20;;;;;;;4.41;100.00;94952.66;6140041;23;20021;-77
2024/01/04 05:53:08;;;;;;;0.20;0.20;;;;;;;4.33;100.00;94962.88;6139640;23;20017;-76
2024/01/04 05:55:54;;;;;;;0.20;0.20;;;;;;;4.40;100.00;94958.19;6138322;23;20865;-77
2024/01/04 05:58:42;;;;;;;0.20;0.20;;;;;;;4.40;100.00;94974.88;6139709;23;20632;-73
2024/01/04 06:01:28;;;;;;;0.10;0.10;;;;;;;4.40;100.00;94987.31;6139627;23;20017;-74
2024/01/04 06:04:14;;;;;;;0.20;0.20;;;;;;;4.29;100.00;94988.25;6139976;23;20714;-73
2024/01/04 06:07:00;;;;;;;0.20;0.20;;;;;;;4.24;100.00;94990.81;6140259;23;20055;-74
2024/01/04 06:09:46;;;;;;;0.20;0.20;;;;;;;4.16;100.00;94995.47;6139891;23;20061;-73
2024/01/04 06:12:32;;;;;;;0.20;0.20;;;;;;;4.21;100.00;95015.94;6140538;23;20025;-74
2024/01/04 06:15:18;;;;;;;0.20;0.20;;;;;;;4.19;100.00;95015.38;6137985;23;20460;-74
2024/01/04 06:18:04;;;;;;;0.22;0.22;;;;;;;4.19;100.00;95018.81;6139344;23;20021;-75
2024/01/04 06:20:50;;;;;;;0.20;0.20;;;;;;;4.22;100.00;95025.50;6140232;23;20401;-74
2024/01/04 06:23:36;;;;;;;0.20;0.20;;;;;;;4.17;100.00;95028.06;6139243;23;20022;-74
2024/01/04 06:26:23;;;;;;;0.20;0.20;;;;;;;4.09;100.00;95017.88;6138391;23;20028;-73
2024/01/04 06:29:09;;;;;;;0.20;0.20;;;;;;;4.18;100.00;95030.47;6139501;23;20021;-76
2024/01/04 06:31:55;;;;;;;0.20;0.20;;;;;;;4.14;100.00;95034.66;6138826;23;20346;-75
2024/01/04 06:34:41;;;;;;;0.22;0.22;;;;;;;4.17;100.00;95031.50;6138541;23;20032;-73
2024/01/04 06:37:28;;;;;;;0.20;0.20;;;;;;;4.19;100.00;95047.94;6140358;23;20040;-74
2024/01/04 06:40:15;;;;;;;0.20;0.20;;;;;;;4.17;100.00;95042.09;6139421;23;20026;-75
2024/01/04 06:43:03;;;;;;;0.17;0.17;;;;;;;4.18;100.00;95051.63;6138056;23;20025;-73
2024/01/04 06:45:49;;;;;;;0.20;0.20;;;;;;;4.17;100.00;95050.03;6139757;23;20052;-77
2024/01/04 06:48:35;;;;;;;0.20;0.20;;;;;;;4.16;100.00;95055.59;6138821;23;20026;-75
2024/01/04 06:51:21;;;;;;;0.20;0.20;;;;;;;4.09;100.00;95053.09;6139692;23;20025;-75
2024/01/04 06:54:06;;;;;;;0.20;0.20;;;;;;;4.04;100.00;95060.16;6138792;23;20376;-75
2024/01/04 06:56:54;;;;;;;0.20;0.20;;;;;;;4.10;100.00;95065.28;6138303;23;20022;-77
2024/01/04 06:59:40;;;;;;;0.20;0.20;;;;;;;4.13;100.00;95072.75;6138882;23;20025;-74
2024/01/04 07:02:26;;;;;;;0.20;0.20;;;;;;;4.12;100.00;95059.75;6138285;23;20021;-74
2024/01/04 07:05:12;;;;;;;0.30;0.30;;;;;;;4.12;100.00;95076.44;6139434;23;20113;-76
2024/01/04 07:07:58;;;;;;;0.20;0.20;;;;;;;4.05;100.00;95057.28;6139130;23;20360;-76
2024/01/04 07:10:44;;;;;;;0.20;0.20;;;;;;;4.12;100.00;95068.47;6138947;23;20028;-76
2024/01/04 07:13:30;;;;;;;0.17;0.17;;;;;;;4.16;100.00;95074.91;6138850;23;20025;-76
2024/01/04 07:16:16;;;;;;;0.20;0.20;;;;;;;4.10;100.00;95062.63;6138956;23;20692;-76
2024/01/04 07:19:02;;;;;;;0.20;0.20;;;;;;;4.14;100.00;95071.72;6138134;23;20561;-76
2024/01/04 07:21:48;;;;;;;0.20;0.20;;;;;;;4.13;100.00;95070.13;6137589;23;20096;-76
2024/01/04 07:24:34;;;;;;;0.20;0.20;;;;;;;4.13;100.00;95079.91;6138382;23;20033;-76
2024/01/04 07:27:20;;;;;;;0.10;0.10;;;;;;;4.15;100.00;95073.31;6139113;23;20674;-76
2024/01/04 07:30:07;;;;;;;0.20;0.20;;;;;;;4.19;100.00;95094.81;6139073;23;20025;-75
2024/01/04 07:32:53;;;;;;;0.20;0.20;;;;;;;4.20;100.00;95096.41;6138817;23;20521;-76
2024/01/04 07:35:39;;;;;;;0.20;0.20;;;;;;;4.17;100.00;95081.81;6139471;23;20024;-75
2024/01/04 07:38:24;;;;;;;0.20;0.20;;;;;;;4.22;100.00;95090.88;6138895;23;20025;-75
2024/01/04 07:41:11;;;;;;;0.20;0.20;;;;;;;4.29;100.00;95094.19;6139156;23;20021;-76
2024/01/04 07:43:57;;;;;;;0.20;0.20;;;;;;;4.31;100.00;95090.22;6138979;23;20100;-76
2024/01/04 07:46:43;;;;;;;0.20;0.20;;;;;;;4.33;100.00;95108.53;6139043;23;20076;-76
2024/01/04 07:49:29;;;;;;;0.20;0.20;;;;;;;4.33;100.00;95090.00;6139016;23;20033;-76
2024/01/04 07:52:15;;;;;;;0.20;0.20;;;;;;;4.30;100.00;95101.06;6139220;23;20026;-75
2024/01/04 07:55:01;;;;;;;0.20;0.20;;;;;;;4.30;100.00;95096.59;6139503;23;20021;-77
2024/01/04 07:57:46;;;;;;;0.25;0.25;;;;;;;4.34;100.00;95108.28;6140624;23;20177;-76
2024/01/04 08:00:32;;;;;;;0.20;0.20;;;;;;;4.38;100.00;95104.13;6140816;23;20053;-74
2024/01/04 08:03:18;;;;;;;0.20;0.20;;;;;;;4.39;100.00;95111.00;6140312;23;20077;-75
2024/01/04 08:06:05;;;;;;;0.20;0.20;;;;;;;4.37;100.00;95107.81;6141080;23;20029;-77
2024/01/04 08:08:52;;;;;;;0.20;0.20;;;;;;;4.40;100.00;95109.16;6140914;23;20028;-76
2024/01/04 08:11:38;;;;;;;0.20;0.20;;;;;;;4.42;100.00;95118.47;6138451;23;20360;-76
2024/01/04 08:14:24;;;;;;;0.20;0.20;;;;;;;4.48;100.00;95120.16;6139527;23;20025;-74
2024/01/04 08:17:10;;;;;;;0.20;0.20;;;;;;;4.52;100.00;95115.19;6142635;23;20599;-77
2024/01/04 08:19:56;;;;;;;0.30;0.30;;;;;;;4.46;100.00;95118.81;6139966;23;20032;-78
2024/01/04 08:22:42;;;;;;;0.20;0.20;;;;;;;4.53;100.00;95121.28;6140446;23;20083;-77
2024/01/04 08:25:28;;;;;;;0.20;0.20;;;;;;;4.57;100.00;95128.50;6140713;23;20025;-76
2024/01/04 08:28:14;;;;;;;0.20;0.20;;;;;;;4.60;100.00;95132.53;6140284;23;20112;-76
2024/01/04 08:31:00;;;;;;;0.20;0.20;;;;;;;4.61;100.00;95129.63;6140607;23;20030;-76
2024/01/04 08:33:46;;;;;;;0.20;0.20;;;;;;;4.69;100.00;95144.31;6138991;23;20810;-76
2024/01/04 08:36:31;;;;;;;0.20;0.20;;;;;;;4.82;100.00;95137.84;6140798;23;20030;-76
2024/01/04 08:39:17;;;;;;;0.22;0.22;;;;;;;4.93;100.00;95140.41;6139584;23;20026;-76
2024/01/04 08:42:04;;;;;;;0.20;0.20;;;;;;;5.00;100.00;95141.03;6140735;23;20025;-77
2024/01/04 08:44:50;;;;;;;0.20;0.20;;;;;;;5.13;100.00;95152.31;6140157;23;20346;-76
2024/01/04 08:47:36;;;;;;;0.28;0.28;;;;;;;5.13;100.00;95155.75;6140315;23;20076;-79
2024/01/04 08:50:22;;;;;;;0.20;0.20;;;;;;;5.08;100.00;95150.41;6140946;23;20479;-76
2024/01/04 08:53:08;;;;;;;0.20;0.20;;;;;;;5.24;100.00;95165.47;6139036;23;20104;-77
2024/01/04 08:55:54;;;;;;;0.20;0.20;;;;;;;5.18;100.00;95161.16;6140792;23;20021;-78
2024/01/04 08:58:39;;;;;;;0.30;0.30;;;;;;;5.17;100.00;95159.53;6139858;23;20048;-79
2024/01/04 09:01:25;;;;;;;0.30;0.30;;;;;;;5.22;100.00;95162.28;6124551;23;20025;-79
2024/01/04 09:04:12;;;;;;;0.30;0.30;;;;;;;5.23;100.00;95165.72;6110405;23;20029;-79
2024/01/04 09:06:58;;;;;;;0.20;0.20;;;;;;;5.22;100.00;95174.72;6112065;23;20021;-75
2024/01/04 09:09:44;;;;;;;0.30;0.30;;;;;;;5.29;100.00;95168.19;6111642;23;20026;-75
2024/01/04 09:12:30;;;;;;;0.20;0.20;;;;;;;5.25;100.00;95180.34;6111488;23;20104;-76
2024/01/04 09:15:17;;;;;;;0.20;0.20;;;;;;;5.26;100.00;95183.78;6112520;23;20022;-76
2024/01/04 09:18:05;;;;;;;0.30;0.30;;;;;;;5.35;100.00;95181.50;6110103;23;20026;-76
2024/01/04 09:20:51;;;;;;;0.20;0.20;;;;;;;5.40;100.00;95173.63;6109713;23;20022;-76
2024/01/04 09:23:37;;;;;;;0.20;0.20;;;;;;;5.53;100.00;95171.41;6110169;23;20132;-77
2024/01/04 09:26:22;;;;;;;0.20;0.20;;;;;;;5.77;100.00;95179.09;6110228;23;20104;-76
2024/01/04 09:29:09;;;;;;;0.20;0.20;;;;;;;6.66;100.00;95191.91;6109075;23;20022;-76
2024/01/04 09:31:55;;;;;;;0.20;0.20;;;;;;;6.27;100.00;95189.44;6109109;23;20025;-78
2024/01/04 09:34:41;;;;;;;0.20;0.20;;;;;;;5.65;100.00;95197.00;6112739;23;20060;-77
2024/01/04 09:37:27;;;;;;;0.20;0.20;;;;;;;5.48;100.00;95192.56;6132351;23;20026;-76
2024/01/04 09:40:13;;;;;;;0.20;0.20;;;;;;;5.45;100.00;95192.25;6114242;23;20026;-75
2024/01/04 09:43:00;;;;;;;0.20;0.20;;;;;;;5.64;100.00;95203.34;6111063;23;20637;-75
2024/01/04 09:45:47;;;;;;;0.20;0.20;;;;;;;5.47;100.00;95227.31;6111982;23;20030;-76
2024/01/04 09:48:37;;;;;;;0.20;0.20;;;;;;;5.35;100.00;95230.06;6109988;23;20022;-75
2024/01/04 09:51:24;;;;;;;0.30;0.30;;;;;;;5.41;100.00;95228.28;6112445;23;20026;-75
2024/01/04 09:54:11;;;;;;;0.20;0.20;;;;;;;5.49;100.00;95244.56;6111446;23;20746;-75
2024/01/04 09:56:59;;;;;;;0.20;0.20;;;;;;;5.49;100.00;95235.81;6111984;23;20693;-77
2024/01/04 09:59:45;;;;;;;0.20;0.20;;;;;;;5.44;100.00;95249.00;6110507;23;20525;-75
2024/01/04 10:02:32;;;;;;;0.20;0.20;;;;;;;5.40;100.00;95261.16;6112097;23;20025;-76
2024/01/04 10:05:20;;;;;;;0.22;0.22;;;;;;;5.38;100.00;95255.31;6110713;23;20029;-77
2024/01/04 10:08:29;;;;;;;0.20;0.20;;;;;;;5.30;100.00;95256.53;6109768;23;20057;-75
2024/01/04 10:11:22;;;;;;;0.20;0.20;;;;;;;5.35;100.00;95261.88;6111190;23;20093;-75
2024/01/04 10:14:09;;;;;;;0.20;0.20;;;;;;;5.43;100.00;95279.25;6109475;23;20022;-77
2024/01/04 10:17:02;;;;;;;0.20;0.20;;;;;;;5.41;100.00;95290.09;6110390;23;20026;-75
2024/01/04 10:19:47;;;;;;;0.20;0.20;;;;;;;5.52;100.00;95283.06;6131757;23;20184;-75
2024/01/04 10:22:33;;;;;;;0.20;0.20;;;;;;;5.55;100.00;95286.06;6110847;23;20026;-75
2024/01/04 10:25:22;;;;;;;0.20;0.20;;;;;;;5.56;100.00;95290.31;6110062;23;20512;-76
2024/01/04 10:28:08;;;;;;;0.30;0.30;;;;;;;5.56;100.00;95289.50;6129243;23;20033;-75
2024/01/04 10:30:57;;;;;;;0.20;0.20;;;;;;;5.52;100.00;95297.13;6109718;23;20522;-75
2024/01/04 10:33:43;;;;;;;0.17;0.17;;;;;;;5.51;100.00;95290.22;6109252;23;20458;-77
2024/01/04 10:36:29;;;;;;;0.10;0.10;;;;;;;5.58;100.00;95301.47;6111924;23;20033;-75
2024/01/04 10:39:20;;;;;;;0.20;0.20;;;;;;;5.58;100.00;95301.47;6110135;23;20029;-76
2024/01/04 10:42:07;;;;;;;0.20;0.20;;;;;;;5.60;100.00;95306.53;6109829;23;20104;-75
2024/01/04 10:44:54;;;;;;;0.20;0.20;;;;;;;5.63;100.00;95315.88;6108533;23;20021;-77
2024/01/04 10:47:41;;;;;;;0.20;0.20;;;;;;;5.56;100.00;95310.75;6110028;23;20030;-79
2024/01/04 10:50:30;;;;;;;0.20;0.20;;;;;;;5.65;100.00;95303.97;6109930;23;20021;-76
2024/01/04 10:53:16;;;;;;;0.20;0.20;;;;;;;5.54;100.00;95316.31;6109743;23;20527;-76
2024/01/04 10:56:08;;;;;;;0.22;0.22;;;;;;;5.61;100.00;95323.28;6108426;23;20021;-78
2024/01/04 10:58:55;;;;;;;;;;;;;;;5.45;100.00;95320.41;6110015;23;20021;-75
2024/01/04 11:01:42;;;;;;;0.20;0.20;;;;;;;5.46;100.00;95322.03;6123129;23;20348;-77
2024/01/04 11:04:29;;;;;;;0.20;0.20;;;;;;;5.51;100.00;95313.31;6136591;23;20021;-77
2024/01/04 11:07:16;;;;;;;0.20;0.20;;;;;;;5.55;100.00;95314.44;6136800;23;20036;-75
2024/01/04 11:10:02;;;;;;;0.20;0.20;;;;;;;5.70;100.00;95317.31;6137847;23;20018;-77
2024/01/04 11:12:49;;;;;;;0.20;0.20;;;;;;;5.77;100.00;95312.63;6137245;23;20025;-75
2024/01/04 11:15:35;;;;;;;0.20;0.20;;;;;;;5.73;100.00;95318.66;6136866;23;20026;-77
2024/01/04 11:18:49;;;;;;;0.20;0.20;;;;;;;5.66;100.00;95318.84;6137898;23;20142;-75
2024/01/04 11:21:55;;;;;;;0.20;0.20;;;;;;;5.59;100.00;95331.47;6138955;23;20092;-76
2024/01/04 11:24:58;;;;;;;0.20;0.20;;;;;;;5.48;100.00;95335.03;6137112;23;20461;-77
2024/01/04 11:27:44;;;;;;;0.20;0.20;;;;;;;5.54;100.00;95332.22;6136822;23;20029;-76
2024/01/04 11:30:31;;;;;;;0.20;0.20;;;;;;;5.62;100.00;95328.34;6138488;23;20116;-77
2024/01/04 11:33:19;;;;;;;0.20;0.20;;;;;;;5.55;100.00;95323.22;6138119;23;20025;-76
2024/01/04 11:36:06;;;;;;;0.20;0.20;;;;;;;5.52;100.00;95318.38;6132375;23;20515;-76
2024/01/04 11:38:54;;;;;;;0.20;0.20;;;;;;;5.55;100.00;95328.50;6137804;23;20361;-77
2024/01/04 11:41:40;;;;;;;0.13;0.13;;;;;;;5.64;100.00;95328.09;6137582;23;20120;-75
2024/01/04 11:44:35;;;;;;;0.20;0.20;;;;;;;5.78;100.00;95327.50;6138100;23;20067;-75
2024/01/04 11:47:25;;;;;;;0.20;0.20;;;;;;;6.13;100.00;95331.69;6137417;23;20536;-76
2024/01/04 11:50:23;;;;;;;0.20;0.20;;;;;;;6.30;100.00;95320.97;6138396;23;20531;-76
2024/01/04 11:53:12;;;;;;;0.20;0.20;;;;;;;6.14;100.00;95325.31;6138342;23;20504;-76
2024/01/04 11:56:05;;;;;;;0.20;0.20;;;;;;;5.85;100.00;95330.00;6138463;23;20029;-76
2024/01/04 11:58:51;;;;;;;0.20;0.20;;;;;;;5.89;100.00;95331.09;6137887;23;20132;-76
2024/01/04 12:01:42;;;;;;;0.30;0.30;;;;;;;5.69;100.00;95336.94;6137501;23;20112;-78
2024/01/04 12:04:28;;;;;;;0.20;0.20;;;;;;;5.63;100.00;95327.28;6137526;23;20026;-76
2024/01/04 12:07:14;;;;;;;0.20;0.20;;;;;;;5.68;100.00;95335.34;6137402;23;20025;-76
2024/01/04 12:10:00;;;;;;;0.20;0.20;;;;;;;5.59;100.00;95334.13;6139144;23;20865;-76
2024/01/04 12:12:49;;;;;;;0.20;0.20;;;;;;;5.58;100.00;95332.53;6136096;23;20030;-76
2024/01/04 12:15:35;;;;;;;0.13;0.13;;;;;;;5.57;100.00;95334.38;6137308;23;20029;-78
2024/01/04 12:18:21;;;;;;;0.20;0.20;;;;;;;5.51;100.00;95331.88;6137450;23;20083;-75
2024/01/04 12:21:08;;;;;;;0.20;0.20;;;;;;;5.80;100.00;95329.91;6138960;23;20105;-76
2024/01/04 12:23:55;;;;;;;0.20;0.20;;;;;;;6.07;100.00;95324.69;6137305;23;20028;-79
2024/01/04 12:26:41;;;;;;;0.20;0.20;;;;;;;6.19;100.00;95325.38;6137988;23;20028;-79
2024/01/04 12:29:27;;;;;;;0.20;0.20;;;;;;;6.63;100.00;95320.00;6137418;23;20794;-77
2024/01/04 12:32:13;;;;;;;0.20;0.20;;;;;;;7.32;100.00;95322.75;6136407;23;20018;-78
2024/01/04 12:35:02;;;;;;;0.20;0.20;;;;;;;6.94;100.00;95335.19;6137797;23;20078;-76
2024/01/04 12:38:21;;;;;;;0.20;0.20;;;;;;;6.73;100.00;95338.72;6138294;23;20064;-75
2024/01/04 12:41:07;;;;;;;0.20;0.20;;;;;;;6.59;100.00;95334.84;6135174;23;20030;-74
2024/01/04 12:43:54;;;;;;;0.20;0.20;;;;;;;6.37;100.00;95338.31;6138626;23;20406;-76
2024/01/04 12:46:43;;;;;;;0.20;0.20;;;;;;;6.43;100.00;95332.03;6138198;23;20025;-76
2024/01/04 12:49:29;;;;;;;0.20;0.20;;;;;;;6.90;100.00;95342.06;6139112;23;20087;-75
2024/01/04 12:52:14;;;;;;;0.20;0.20;;;;;;;7.34;100.00;95338.44;6138760;23;20022;-75
2024/01/04 12:55:00;;;;;;;0.20;0.20;;;;;;;7.28;100.00;95342.94;6139324;23;20025;-75
2024/01/04 12:57:47;;;;;;;0.20;0.20;;;;;;;7.21;100.00;95329.03;6137588;23;20036;-75
2024/01/04 13:00:32;;;;;;;0.20;0.20;;;;;;;7.20;100.00;95332.75;6138254;23;20100;-75
2024/01/04 13:03:18;;;;;;;0.28;0.28;;;;;;;7.22;100.00;95342.06;6137965;23;20032;-76
2024/01/04 13:06:05;;;;;;;0.30;0.30;;;;;;;7.00;100.00;95354.66;6138934;23;20977;-75